Terminal Aerodrome Forecast
Issued by NWS Des Moines, IA

Current Version | Previous Version | Text Only | Print | Product List | Glossary On
Versions: 1 2 3 4 5 6 7 8 9 10 11 12 13 14 15 16 17 18 19 20
000
FTUS43 KDMX 251419 AAD
TAFALO
TAF AMD
KALO 251419Z 2514/2612 VRB03KT P6SM BKN011
     FM251500 15004KT P6SM SCT012
     FM260600 13005KT P6SM SCT060 OVC120=

USA.gov is the U.S. government's official web portal to all federal, state and local government web resources and services.